createdAt,value
2018-09-10T00:01:25.076Z,0.73
2018-09-10T00:04:28.203Z,1.00
2018-09-10T00:07:31.424Z,0.70
2018-09-10T00:10:34.728Z,0.80
2018-09-10T00:13:37.926Z,0.80
2018-09-10T00:16:41.107Z,1.03
2018-09-10T00:19:44.272Z,0.80
2018-09-10T00:22:47.688Z,0.93
2018-09-10T00:25:50.843Z,0.63
2018-09-10T00:28:54.002Z,0.80
2018-09-10T00:31:57.118Z,1.00
2018-09-10T00:35:00.232Z,0.70
2018-09-10T00:38:03.488Z,1.30
2018-09-10T00:41:06.633Z,0.83
2018-09-10T00:44:10.054Z,0.80
2018-09-10T00:47:13.358Z,0.83
2018-09-10T00:50:16.510Z,0.70
2018-09-10T00:53:19.715Z,0.90
2018-09-10T00:56:22.898Z,0.93
2018-09-10T00:59:26.260Z,0.70
2018-09-10T01:02:29.416Z,1.10
2018-09-10T01:05:32.631Z,0.70
2018-09-10T01:08:35.793Z,0.70
2018-09-10T01:11:39.413Z,1.20
2018-09-10T01:14:42.760Z,1.83
2018-09-10T01:17:46.027Z,0.70
2018-09-10T01:20:49.265Z,0.70
2018-09-10T01:23:52.560Z,0.90
2018-09-10T01:26:55.794Z,1.30
2018-09-10T01:29:59.104Z,1.00
2018-09-10T01:33:02.392Z,0.80
2018-09-10T01:36:05.699Z,0.80
2018-09-10T01:39:09.438Z,1.17
2018-09-10T01:42:12.618Z,0.80
2018-09-10T01:45:16.027Z,1.00
2018-09-10T01:48:19.506Z,1.00
2018-09-10T01:51:22.692Z,1.30
2018-09-10T01:54:25.869Z,0.90
2018-09-10T01:57:29.090Z,1.10
2018-09-10T02:00:32.229Z,0.87
2018-09-10T02:03:35.449Z,1.10
2018-09-10T02:06:38.734Z,0.70
2018-09-10T02:09:42.100Z,0.73
2018-09-10T02:12:45.363Z,0.90
2018-09-10T02:15:48.590Z,0.83
2018-09-10T02:18:51.852Z,0.80
2018-09-10T02:21:56.040Z,1.37
2018-09-10T02:24:59.202Z,1.07
2018-09-10T02:28:02.390Z,0.80
2018-09-10T02:31:05.804Z,1.00
2018-09-10T02:34:09.204Z,0.70
2018-09-10T02:37:12.443Z,1.00
2018-09-10T02:40:15.655Z,0.90
2018-09-10T02:43:18.856Z,1.00
2018-09-10T02:46:21.986Z,0.90
2018-09-10T02:49:25.261Z,1.00
2018-09-10T02:52:28.451Z,0.63
2018-09-10T02:55:31.736Z,1.07
2018-09-10T02:58:35.039Z,1.10
2018-09-10T03:01:39.221Z,0.80
2018-09-10T03:04:44.975Z,1.20
2018-09-10T03:07:48.198Z,1.03
2018-09-10T03:10:51.429Z,1.20
2018-09-10T03:13:54.639Z,1.00
2018-09-10T03:16:57.859Z,1.00
2018-09-10T03:20:01.033Z,1.30
2018-09-10T03:23:04.227Z,1.20
2018-09-10T03:26:07.464Z,1.00
2018-09-10T03:29:10.744Z,1.30
2018-09-10T03:32:13.856Z,1.20
2018-09-10T03:35:17.078Z,1.00
2018-09-10T03:38:20.242Z,0.80
2018-09-10T03:41:23.435Z,0.83
2018-09-10T03:44:26.715Z,1.00
2018-09-10T03:47:29.999Z,1.00
2018-09-10T03:50:33.359Z,1.03
2018-09-10T03:53:36.848Z,1.10
2018-09-10T03:56:40.208Z,0.90
2018-09-10T03:59:43.572Z,0.97
2018-09-10T04:02:46.816Z,1.20
2018-09-10T04:05:50.138Z,1.10
2018-09-10T04:08:53.455Z,1.10
2018-09-10T04:12:59.790Z,1.20
2018-09-10T04:16:04.115Z,1.10
2018-09-10T04:19:07.587Z,1.10
2018-09-10T04:22:42.131Z,1.23
2018-09-10T04:25:45.388Z,1.17
2018-09-10T04:28:48.736Z,1.20
2018-09-10T04:31:51.927Z,0.90
2018-09-10T04:34:57.104Z,1.03
2018-09-10T04:38:03.417Z,0.90
2018-09-10T04:41:06.644Z,1.50
2018-09-10T04:44:10.850Z,1.10
2018-09-10T04:47:14.004Z,1.10
2018-09-10T04:50:18.662Z,0.80
2018-09-10T04:53:25.822Z,1.90
2018-09-10T04:56:29.173Z,1.23
2018-09-10T04:59:32.373Z,1.30
2018-09-10T05:02:35.675Z,1.50
2018-09-10T05:05:38.900Z,1.10
2018-09-10T05:08:41.991Z,1.10
2018-09-10T05:11:45.379Z,1.30
2018-09-10T05:14:48.814Z,1.40
2018-09-10T05:17:52.058Z,1.43
2018-09-10T05:20:55.320Z,1.20
2018-09-10T05:23:58.582Z,1.37
2018-09-10T05:27:01.819Z,1.43
2018-09-10T05:30:06.101Z,2.90
2018-09-10T05:33:09.368Z,3.50
2018-09-10T05:36:14.719Z,1.80
2018-09-10T05:39:17.963Z,1.80
2018-09-10T05:42:21.170Z,1.80
2018-09-10T05:45:24.532Z,1.23
2018-09-10T05:48:27.781Z,2.00
2018-09-10T05:54:41.771Z,2.57
2018-09-10T05:57:45.042Z,1.20
2018-09-10T06:00:48.246Z,1.20
2018-09-10T06:03:53.555Z,0.90
2018-09-10T06:11:04.792Z,1.10
2018-09-10T06:14:08.007Z,1.00
2018-09-10T06:17:41.987Z,1.10
2018-09-10T06:20:46.210Z,1.00
2018-09-10T06:23:51.432Z,0.90
2018-09-10T06:26:54.782Z,1.20
2018-09-10T06:29:58.033Z,1.23
2018-09-10T06:33:03.287Z,1.43
2018-09-10T06:36:07.554Z,1.83
2018-09-10T06:39:12.321Z,1.87
2018-09-10T06:42:15.733Z,2.57
2018-09-10T06:45:18.945Z,2.60
2018-09-10T06:48:22.305Z,2.57
2018-09-10T06:51:25.610Z,1.73
2018-09-10T06:54:29.867Z,2.37
2018-09-10T06:57:34.114Z,2.23
2018-09-10T07:00:39.302Z,2.60
2018-09-10T07:03:42.429Z,2.30
2018-09-10T07:06:46.051Z,2.17
2018-09-10T07:09:50.334Z,2.47
2018-09-10T07:12:54.564Z,2.00
2018-09-10T07:15:57.842Z,1.90
2018-09-10T07:19:01.062Z,1.50
2018-09-10T07:22:04.478Z,1.90
2018-09-10T07:25:08.741Z,1.80
2018-09-10T07:28:12.211Z,1.60
2018-09-10T07:31:15.470Z,1.77
2018-09-10T07:34:18.756Z,2.27
2018-09-10T07:37:22.021Z,1.30
2018-09-10T07:40:25.256Z,1.33
2018-09-10T07:43:28.488Z,1.70
2018-09-10T07:46:31.712Z,1.50
2018-09-10T07:49:35.039Z,1.67
2018-09-10T07:52:38.308Z,1.37
2018-09-10T07:55:41.521Z,1.40
2018-09-10T07:58:44.800Z,1.40
2018-09-10T08:01:47.997Z,1.00
2018-09-10T08:04:51.190Z,1.40
2018-09-10T08:07:54.384Z,1.27
2018-09-10T08:10:57.498Z,0.83
2018-09-10T08:14:00.698Z,1.00
2018-09-10T08:17:03.992Z,1.07
2018-09-10T08:20:07.476Z,1.00
2018-09-10T08:23:11.707Z,1.00
2018-09-10T08:26:15.067Z,1.30
2018-09-10T08:29:18.389Z,0.90
2018-09-10T08:32:21.669Z,1.20
2018-09-10T08:35:24.951Z,1.10
2018-09-10T08:38:28.120Z,1.10
2018-09-10T08:41:31.337Z,0.73
2018-09-10T08:44:34.646Z,0.90
2018-09-10T08:47:38.101Z,0.90
2018-09-10T08:50:41.356Z,0.93
2018-09-10T08:53:44.783Z,0.80
2018-09-10T08:56:48.093Z,0.97
2018-09-10T08:59:51.211Z,0.97
2018-09-10T09:02:54.575Z,0.80
2018-09-10T09:05:57.742Z,1.00
2018-09-10T09:09:01.142Z,0.80
2018-09-10T09:12:04.387Z,0.77
2018-09-10T09:15:07.706Z,0.57
2018-09-10T09:18:11.223Z,0.50
2018-09-10T09:21:14.663Z,0.70
2018-09-10T09:24:17.956Z,0.80
2018-09-10T09:27:21.351Z,0.60
2018-09-10T09:30:24.669Z,1.30
2018-09-10T09:33:27.980Z,0.70
2018-09-10T09:36:36.811Z,0.67
2018-09-10T09:39:45.816Z,0.67
2018-09-10T09:42:54.770Z,0.80
2018-09-10T09:46:03.522Z,0.80
2018-09-10T09:49:06.783Z,0.60
2018-09-10T09:52:11.255Z,0.60
2018-09-10T09:55:14.531Z,0.70
2018-09-10T09:58:18.850Z,0.83
2018-09-10T10:01:27.794Z,0.70
2018-09-10T10:04:31.314Z,0.60
2018-09-10T10:07:34.570Z,0.60
2018-09-10T10:10:38.110Z,0.70
2018-09-10T10:13:41.392Z,0.70
2018-09-10T10:16:44.648Z,0.70
2018-09-10T10:19:48.379Z,0.60
2018-09-10T10:22:51.700Z,0.67
2018-09-10T10:25:54.946Z,0.60
2018-09-10T10:28:58.160Z,0.63
2018-09-10T10:32:01.446Z,0.60
2018-09-10T10:35:05.023Z,0.60
2018-09-10T10:38:08.195Z,0.70
2018-09-10T10:41:11.425Z,0.63
2018-09-10T10:44:45.467Z,0.80
2018-09-10T10:47:48.608Z,0.60
2018-09-10T10:50:51.833Z,0.50
2018-09-10T10:53:55.071Z,0.70
2018-09-10T10:56:58.278Z,0.50
2018-09-10T11:00:01.901Z,0.50
2018-09-10T11:03:05.249Z,0.60
2018-09-10T11:06:08.598Z,0.47
2018-09-10T11:09:11.871Z,0.60
2018-09-10T11:12:15.230Z,0.40
2018-09-10T11:15:18.431Z,0.60
2018-09-10T11:18:21.720Z,0.60
2018-09-10T11:21:25.275Z,0.80
2018-09-10T11:24:28.543Z,0.50
2018-09-10T11:27:31.871Z,0.70
2018-09-10T11:30:35.126Z,0.67
2018-09-10T11:33:38.331Z,0.53
2018-09-10T11:36:41.344Z,0.63
2018-09-10T11:39:44.557Z,0.80
2018-09-10T11:42:47.693Z,0.70
2018-09-10T11:45:50.841Z,0.70
2018-09-10T11:48:54.144Z,0.97
2018-09-10T11:51:57.282Z,0.70
2018-09-10T11:55:00.457Z,0.80
2018-09-10T11:58:03.592Z,1.00
2018-09-10T12:01:06.709Z,1.53
2018-09-10T12:04:09.960Z,0.87
2018-09-10T12:07:13.778Z,1.70
2018-09-10T12:10:16.992Z,1.30
2018-09-10T12:13:20.514Z,1.10
2018-09-10T12:16:23.818Z,1.40
2018-09-10T12:19:27.022Z,1.30
2018-09-10T12:22:30.326Z,1.00
2018-09-10T12:25:33.527Z,1.20
2018-09-10T12:28:36.684Z,1.03
2018-09-10T12:31:39.810Z,1.40
2018-09-10T12:35:45.984Z,0.93
2018-09-10T12:38:49.204Z,1.17
2018-09-10T12:41:52.309Z,1.40
2018-09-10T12:44:55.500Z,1.30
2018-09-10T12:47:58.685Z,1.50
2018-09-10T12:51:01.926Z,1.40
2018-09-10T12:54:05.057Z,1.70
2018-09-10T12:57:08.372Z,1.50
2018-09-10T13:00:11.637Z,1.87
2018-09-10T13:03:14.901Z,1.53
2018-09-10T13:06:18.052Z,1.70
2018-09-10T13:09:21.215Z,1.70
2018-09-10T13:12:24.479Z,1.60
2018-09-10T13:15:27.754Z,1.63
2018-09-10T13:18:30.991Z,1.73
2018-09-10T13:21:34.463Z,1.73
2018-09-10T13:24:37.587Z,1.97
2018-09-10T13:27:40.724Z,1.57
2018-09-10T13:30:43.804Z,2.13
2018-09-10T13:33:47.000Z,2.10
2018-09-10T13:36:50.131Z,1.90
2018-09-10T13:39:53.441Z,2.40
2018-09-10T13:42:56.617Z,2.10
2018-09-10T13:45:59.700Z,1.50
2018-09-10T13:49:02.965Z,1.60
2018-09-10T13:52:06.160Z,1.90
2018-09-10T13:55:09.220Z,1.80
2018-09-10T13:58:43.461Z,1.73
2018-09-10T14:01:46.725Z,2.13
2018-09-10T14:04:49.944Z,1.80
2018-09-10T14:07:53.118Z,1.60
2018-09-10T14:10:56.261Z,1.90
2018-09-10T14:13:59.636Z,1.43
2018-09-10T14:17:02.791Z,1.80
2018-09-10T14:20:06.000Z,2.20
2018-09-10T14:23:10.058Z,1.90
2018-09-10T14:26:13.302Z,2.30
2018-09-10T14:29:16.791Z,3.03
2018-09-10T14:32:20.346Z,2.37
2018-09-10T14:35:23.661Z,1.90
2018-09-10T14:38:26.789Z,1.60
2018-09-10T14:41:29.927Z,1.37
2018-09-10T14:44:33.181Z,1.60
2018-09-10T14:47:36.235Z,1.47
2018-09-10T14:50:39.309Z,1.17
2018-09-10T14:53:42.598Z,1.60
2018-09-10T14:56:45.796Z,1.23
2018-09-10T14:59:48.901Z,1.30
2018-09-10T15:02:52.226Z,1.70
2018-09-10T15:05:55.622Z,1.73
2018-09-10T15:08:58.857Z,1.40
2018-09-10T15:12:01.987Z,1.53
2018-09-10T15:15:05.162Z,1.87
2018-09-10T15:18:08.338Z,1.17
2018-09-10T15:21:11.543Z,1.70
2018-09-10T15:24:14.713Z,1.43
2018-09-10T15:27:17.944Z,1.63
2018-09-10T15:30:21.082Z,1.63
2018-09-10T15:33:24.341Z,1.53
2018-09-10T15:36:27.512Z,1.87
2018-09-10T15:39:30.721Z,1.73
2018-09-10T15:42:33.905Z,1.50
2018-09-10T15:45:39.134Z,1.77
2018-09-10T15:48:42.226Z,1.37
2018-09-10T15:51:45.491Z,1.57
2018-09-10T15:54:48.703Z,2.13
2018-09-10T15:57:51.905Z,8.23
2018-09-10T16:00:55.096Z,2.70
2018-09-10T16:03:58.303Z,1.73
2018-09-10T16:07:01.457Z,1.70
2018-09-10T16:10:04.901Z,1.73
2018-09-10T16:13:08.129Z,2.07
2018-09-10T16:16:12.216Z,1.63
2018-09-10T16:19:15.392Z,1.33
2018-09-10T16:22:19.022Z,1.40
2018-09-10T16:25:22.394Z,1.60
2018-09-10T16:28:26.508Z,1.53
2018-09-10T16:31:29.990Z,1.20
2018-09-10T16:34:33.251Z,1.47
2018-09-10T16:37:36.809Z,1.60
2018-09-10T16:40:40.006Z,1.60
2018-09-10T16:43:43.174Z,1.30
2018-09-10T16:46:46.437Z,1.63
2018-09-10T16:49:49.941Z,1.53
2018-09-10T16:52:53.222Z,1.80
2018-09-10T16:55:57.338Z,1.97
2018-09-10T16:59:01.057Z,2.37
2018-09-10T17:02:04.473Z,2.43
2018-09-10T17:05:07.709Z,1.97
2018-09-10T17:08:10.852Z,2.13
2018-09-10T17:11:14.127Z,2.00
2018-09-10T17:14:17.534Z,2.50
2018-09-10T17:17:20.817Z,2.50
2018-09-10T17:20:24.021Z,1.90
2018-09-10T17:23:27.285Z,1.97
2018-09-10T17:26:30.703Z,2.50
2018-09-10T17:29:33.757Z,2.30
2018-09-10T17:32:38.317Z,2.53
2018-09-10T17:35:41.450Z,2.47
2018-09-10T17:38:46.780Z,2.60
2018-09-10T17:41:52.174Z,2.60
2018-09-10T17:44:55.366Z,2.57
2018-09-10T17:47:58.686Z,2.60
2018-09-10T17:51:03.271Z,2.37
2018-09-10T17:54:06.698Z,2.70
2018-09-10T17:57:09.765Z,2.63
2018-09-10T18:00:15.026Z,2.97
2018-09-10T18:03:18.249Z,4.13
2018-09-10T18:06:22.066Z,4.07
2018-09-10T18:09:25.133Z,4.67
2018-09-10T18:12:30.837Z,4.03
2018-09-10T18:15:34.033Z,3.33
2018-09-10T18:18:37.213Z,2.67
2018-09-10T18:21:40.373Z,2.87
2018-09-10T18:24:46.716Z,2.97
2018-09-10T18:27:50.304Z,3.40
2018-09-10T18:30:54.449Z,2.73
2018-09-10T18:33:57.582Z,3.00
2018-09-10T18:37:00.707Z,2.50
2018-09-10T18:40:04.094Z,3.10
2018-09-10T18:43:07.470Z,2.70
2018-09-10T18:49:46.023Z,3.00
2018-09-10T18:52:49.274Z,3.27
2018-09-10T18:55:53.823Z,2.33
2018-09-10T18:58:59.937Z,2.53
2018-09-10T19:02:03.185Z,2.37
2018-09-10T19:05:06.551Z,2.43
2018-09-10T19:08:09.842Z,2.80
2018-09-10T19:11:13.093Z,2.93
2018-09-10T19:14:16.368Z,2.60
2018-09-10T19:17:19.767Z,2.53
2018-09-10T19:20:22.915Z,2.83
2018-09-10T19:23:26.089Z,3.00
2018-09-10T19:26:29.351Z,2.73
2018-09-10T19:29:32.598Z,2.73
2018-09-10T19:32:35.733Z,2.53
2018-09-10T19:35:39.019Z,2.47
2018-09-10T19:38:42.310Z,2.80
2018-09-10T19:41:45.614Z,3.60
2018-09-10T19:44:48.931Z,2.63
2018-09-10T19:47:52.039Z,2.90
2018-09-10T19:50:55.347Z,3.17
2018-09-10T19:53:58.598Z,3.20
2018-09-10T19:57:01.902Z,4.17
2018-09-10T20:00:05.291Z,3.47
2018-09-10T20:03:08.499Z,3.07
2018-09-10T20:06:11.800Z,2.83
2018-09-10T20:09:15.053Z,3.30
2018-09-10T20:12:18.289Z,3.20
2018-09-10T20:15:21.627Z,2.90
2018-09-10T20:18:24.754Z,3.27
2018-09-10T20:21:27.940Z,3.03
2018-09-10T20:24:31.304Z,2.80
2018-09-10T20:27:34.448Z,2.63
2018-09-10T20:30:37.715Z,2.80
2018-09-10T20:34:12.726Z,2.93
2018-09-10T20:37:15.889Z,2.90
2018-09-10T20:40:19.090Z,3.00
2018-09-10T20:43:22.295Z,3.57
2018-09-10T20:46:25.483Z,3.63
2018-09-10T20:49:29.084Z,3.20
2018-09-10T20:52:32.385Z,2.40
2018-09-10T20:55:35.673Z,3.50
2018-09-10T20:58:38.799Z,2.77
2018-09-10T21:01:42.050Z,2.70
2018-09-10T21:04:45.259Z,4.63
2018-09-10T21:07:48.360Z,3.73
2018-09-10T21:10:51.545Z,3.40
2018-09-10T21:13:54.945Z,4.23
2018-09-10T21:16:58.174Z,3.13
2018-09-10T21:20:01.545Z,3.33
2018-09-10T21:23:04.957Z,3.10
2018-09-10T21:26:08.219Z,2.23
2018-09-10T21:29:11.388Z,2.97
2018-09-10T21:32:14.549Z,3.10
2018-09-10T21:35:17.764Z,3.03
2018-09-10T21:38:20.991Z,2.23
2018-09-10T21:41:24.220Z,3.20
2018-09-10T21:44:27.365Z,2.50
2018-09-10T21:47:31.614Z,3.23
2018-09-10T21:50:34.833Z,2.83
2018-09-10T21:53:39.200Z,3.20
2018-09-10T21:56:42.343Z,2.83
2018-09-10T21:59:45.482Z,2.63
2018-09-10T22:02:48.553Z,3.03
2018-09-10T22:05:51.982Z,3.20
2018-09-10T22:08:55.207Z,3.40
2018-09-10T22:12:01.322Z,2.77
2018-09-10T22:15:04.620Z,3.23
2018-09-10T22:18:07.766Z,3.40
2018-09-10T22:21:10.859Z,3.33
2018-09-10T22:24:14.949Z,3.43
2018-09-10T22:27:18.108Z,3.70
2018-09-10T22:30:21.298Z,3.17
2018-09-10T22:33:24.404Z,2.70
2018-09-10T22:36:28.693Z,3.30
2018-09-10T22:39:31.840Z,2.90
2018-09-10T22:42:41.547Z,3.47
2018-09-10T22:45:44.672Z,3.10
2018-09-10T22:48:47.902Z,2.97
2018-09-10T22:51:52.749Z,2.93
2018-09-10T22:54:55.955Z,3.40
2018-09-10T22:58:02.399Z,3.07
2018-09-10T23:01:05.542Z,3.00
2018-09-10T23:04:09.849Z,3.53
2018-09-10T23:07:14.077Z,3.43
2018-09-10T23:10:17.266Z,3.03
2018-09-10T23:13:20.393Z,3.10
2018-09-10T23:16:23.560Z,3.60
2018-09-10T23:19:26.824Z,3.50
2018-09-10T23:22:29.918Z,3.10
2018-09-10T23:25:33.973Z,3.60
2018-09-10T23:28:39.276Z,3.37
2018-09-10T23:31:42.545Z,3.53
2018-09-10T23:34:45.718Z,2.77
2018-09-10T23:37:48.897Z,3.23
2018-09-10T23:40:52.024Z,3.53
2018-09-10T23:43:55.182Z,3.30
2018-09-10T23:46:58.366Z,3.37
2018-09-10T23:50:01.611Z,3.20
2018-09-10T23:53:08.207Z,3.50
2018-09-10T23:56:13.470Z,3.30
2018-09-10T23:59:18.881Z,3.83
